Elkhart Lake, Wisconsin
Current Conditions -  °F | °C
As of 11:53 AM on Sunday 25 Jan 2015 (Local Time) from KSBM Reporting Station
Clear Clear  
Wind Chill:   Ceiling: Unl
Heat Index: 23°   Visibility: 10mi
Dew Point: 12°   Wind: 22mph
Humidity: 63%   Direction: 40°NE
Pressure: 29.98"   Gusts: NA
Location:  43.83°N, 88.02°W
Report Text: KSBM 251753Z AUTO 04019KT 10SM CLR M05/M11 A2998 RMK AO2 PK WND 04030/1714 SLP162 T10501111 11033 21056 51019
Loading
Personal Weather Stations






























Interactive Weather Map New forecast layout! Learn more

10-Day Weather Forecast

Advertisements
Track Severe Weather on mobile